METAR Data
IDs: Format: Raw Decoded Include TAF

Data at: 0431 UTC 26 Sep 2018

KMIV 260354Z AUTO VRB03KT 10SM BKN034 24/22 A3011 RMK AO2 SLP195 T02390217
KMIV 260254Z AUTO VRB03KT 10SM BKN060 23/22 A3012 RMK AO2 SLP196 T02330222 58012
KMIV 260154Z AUTO 00000KT 10SM FEW025 23/23 A3013 RMK AO2 SLP201 T02330228
KMIV 260054Z AUTO VRB03KT 10SM FEW110 23/22 A3015 RMK AO2 SLP208 T02330222
KMIV 252354Z AUTO VRB04KT 10SM FEW024 BKN032 24/23 A3015 RMK AO2 RAB08E29 SLP209 P0000 60003 T02390228 10278 20233 51004
KMIV 252254Z AUTO 00000KT 10SM FEW028 SCT035 BKN043 24/23 A3015 RMK AO2 RAE07B34E45 SLP208 P0001 T02390233
KMIV 252154Z AUTO 18006KT 7SM -RA FEW060 BKN095 BKN120 24/23 A3015 RMK AO2 LTG DSNT NE RAB18 SLP207 P0002 T02440228
KMIV 252054Z AUTO 18008G16KT 150V210 10SM CLR 26/22 A3014 RMK AO2 SLP205 T02610222 58011
KMIV 251954Z AUTO 16008G17KT 10SM CLR 27/22 A3016 RMK AO2 SLP213 T02670222
KMIV 251854Z AUTO VRB06KT 10SM SCT019 28/23 A3017 RMK AO2 SLP216 T02780233
KMIV 251754Z AUTO 17007KT 130V210 10SM BKN018 BKN026 27/23 A3020 RMK AO2 SLP226 60000 T02670228 10267 20217 58019
KMIV 251734Z AUTO 15010G18KT 10SM OVC016 27/23 A3021 RMK AO2 T02670228
KMIV 251720Z AUTO 15012G20KT 10SM BKN014 OVC021 26/23 A3022 RMK AO2 T02610228
KMIV 251654Z AUTO 14011G16KT 10SM BKN015 OVC100 27/23 A3023 RMK AO2 SLP234 T02670228
KMIV 251647Z AUTO 16010KT 10SM BKN015 OVC100 26/23 A3023 RMK AO2 T02610228
KMIV 251637Z AUTO 16009G19KT 130V200 10SM SCT015 OVC100 26/23 A3023 RMK AO2 T02610228
KMIV 251554Z AUTO 15012G21KT 10SM BKN016 OVC110 26/22 A3025 RMK AO2 SLP242 T02560222
KMIV 251454Z AUTO 15008KT 10SM BKN016 BKN020 OVC028 25/22 A3026 RMK AO2 SLP246 60000 T02500222 58005
KMIV 251421Z AUTO 14013G18KT 10SM BKN015 OVC028 25/22 A3027 RMK AO2 T02500217
KMIV 251354Z AUTO 15011G16KT 10SM OVC014 24/22 A3027 RMK AO2 SLP250 T02440217
KMIV 251254Z AUTO 13009KT 8SM OVC010 23/22 A3027 RMK AO2 RAB09E21 SLP249 P0000 T02280217
KMIV 251154Z AUTO 13008KT 7SM OVC010 22/21 A3028 RMK AO2 CIG 008V013 SLP251 60001 70007 T02170206 10217 20183 55005
KMIV 251054Z AUTO 11007KT 9SM OVC011 21/20 A3027 RMK AO2 SLP249 T02060200
KMIV 251033Z AUTO 10009KT 9SM OVC011 21/20 A3028 RMK AO2 T02060200
KMIV 250954Z AUTO 10008KT 9SM BKN009 OVC014 21/19 A3028 RMK AO2 CIG 006V013 SLP253 T02060194
KMIV 250854Z AUTO 10007KT 10SM OVC009 19/19 A3029 RMK AO2 RAB0757E01 CIG 005V012 SLP256 P0000 60001 T01940189 56021
KMIV 250803Z AUTO 10007KT 7SM BKN008 BKN014 OVC025 19/18 A3030 RMK AO2 RAB0757E01 P0000 T01890183
KMIV 250754Z AUTO 09010KT 8SM SCT009 BKN024 OVC030 19/18 A3030 RMK AO2 RAB13E27 SLP260 P0001 T01890183
KMIV 250718Z AUTO 09011KT 6SM -RA BR SCT009 BKN020 OVC033 19/18 A3031 RMK AO2 RAB13 P0000 T01890183
KMIV 250706Z AUTO 09011KT 8SM BKN008 BKN019 OVC025 19/18 A3032 RMK AO2 CIG 006V012 T01890183
KMIV 250654Z AUTO 09012KT 8SM BKN010 BKN023 OVC033 19/18 A3033 RMK AO2 CIG 006V015 SLP267 T01890183
KMIV 250645Z AUTO 09010KT 9SM BKN010 BKN013 OVC031 19/18 A3033 RMK AO2 CIG 007V011 T01890178
KMIV 250634Z AUTO 08008KT 6SM BR OVC009 18/18 A3034 RMK AO2 CIG 007V014 T01830178
KMIV 250554Z AUTO 07009KT 10SM BKN011 OVC020 18/18 A3035 RMK AO2 RAB08E31 CIG 008V014 SLP277 P0000 60001 T01830178 10183 20167 58013
KMIV 250521Z AUTO 08009KT 6SM -RA BR BKN012 OVC021 18/17 A3036 RMK AO2 RAB08 P0000 T01830172
KMIV 250454Z AUTO 07010KT 9SM SCT017 OVC023 18/17 A3036 RMK AO2 RAB05E16B35E46 SLP281 P0001 T01830167 401890161
KMIV 250354Z AUTO 08010KT 10SM OVC022 18/16 A3038 RMK AO2 SLP286 T01830161
KMIV 250254Z AUTO 08011KT 10SM OVC023 18/16 A3039 RMK AO2 SLP290 T01780156 51003
KMIV 250154Z AUTO 08010KT 10SM OVC021 17/16 A3039 RMK AO2 SLP290 T01720156
KMIV 250054Z AUTO 06009KT 10SM OVC028 17/16 A3040 RMK AO2 SLP291 T01720156
KMIV 242354Z AUTO 07009KT 10SM OVC028 17/16 A3038 RMK AO2 RAB21E52 SLP287 P0000 60004 T01670156 10183 20167 52002
KMIV 242254Z AUTO 07010KT 10SM OVC025 17/16 A3038 RMK AO2 SLP287 T01720156
KMIV 242154Z AUTO 08012KT 10SM OVC029 17/16 A3038 RMK AO2 RAB05E37 SLP285 P0000 T01720156
KMIV 242152Z AUTO 07011KT 10SM OVC029 17/16 A3038 RMK AO2 RAB05E37 P0000
KMIV 242103Z AUTO 08012KT 10SM OVC030 18/16 A3038 RMK AO2 T01780161
KMIV 242054Z AUTO 07012G18KT 10SM FEW021 OVC028 18/16 A3037 RMK AO2 RAE33 SLP284 P0001 60004 T01780161 58001
KMIV 242017Z AUTO 07011KT 10SM -RA FEW013 BKN019 OVC025 18/17 A3037 RMK AO2 P0001 T01780167
KMIV 241954Z AUTO 07010KT 10SM -RA BKN012 OVC019 18/17 A3038 RMK AO2 SLP285 P0002 T01780167
KMIV 241951Z AUTO 07008KT 10SM -RA BKN014 OVC019 18/17 A3038 RMK AO2 P0002
KMIV 241854Z AUTO 07010KT 10SM -RA BKN022 OVC028 18/16 A3038 RMK AO2 SLP285 P0001 T01780161
KMIV 241754Z AUTO 08009KT 10SM -RA OVC027 18/16 A3039 RMK AO2 SLP289 P0001 60001 T01830156 10189 20167 58001
KMIV 241743Z AUTO 08010KT 10SM -RA OVC029 18/15 A3039 RMK AO2 P0001 T01830150
KMIV 241654Z AUTO 07010KT 10SM -RA BKN030 OVC045 19/16 A3039 RMK AO2 RAB48 SLP291 P0000 T01890161
KMIV 241647Z AUTO 07009KT 10SM BKN030 OVC045 19/17 A3039 RMK AO2 T01890167